createdAt,value
2023-03-16T00:02:13.549Z,79.61
2023-03-16T00:04:40.503Z,79.73
2023-03-16T00:07:09.116Z,79.47
2023-03-16T00:09:40.804Z,79.51
2023-03-16T00:12:15.783Z,79.42
2023-03-16T00:14:44.076Z,79.40
2023-03-16T00:17:19.034Z,79.46
2023-03-16T00:19:54.971Z,79.64
2023-03-16T00:22:27.049Z,79.71
2023-03-16T00:24:54.493Z,79.94
2023-03-16T00:27:22.930Z,79.83
2023-03-16T00:29:55.723Z,79.81
2023-03-16T00:32:31.996Z,79.94
2023-03-16T00:34:59.403Z,79.91
2023-03-16T00:37:26.952Z,79.86
2023-03-16T00:39:56.408Z,79.91
2023-03-16T00:42:27.733Z,79.66
2023-03-16T00:44:57.568Z,79.75
2023-03-16T00:47:31.064Z,79.27
2023-03-16T00:49:58.059Z,79.16
2023-03-16T00:52:27.311Z,78.96
2023-03-16T00:54:55.111Z,78.92
2023-03-16T01:01:40.130Z,78.82
2023-03-16T01:04:06.665Z,78.83
2023-03-16T01:06:33.271Z,78.56
2023-03-16T01:08:59.754Z,78.64
2023-03-16T01:11:26.326Z,78.28
2023-03-16T01:13:54.650Z,78.12
2023-03-16T01:16:23.465Z,78.26
2023-03-16T01:18:50.493Z,78.14
2023-03-16T01:21:16.978Z,78.11
2023-03-16T01:23:44.437Z,78.03
2023-03-16T01:26:11.543Z,77.85
2023-03-16T01:28:39.297Z,77.77
2023-03-16T01:31:11.667Z,77.67
2023-03-16T01:33:39.120Z,77.59
2023-03-16T01:36:11.956Z,77.63
2023-03-16T01:38:38.642Z,77.18
2023-03-16T01:41:06.173Z,77.00
2023-03-16T01:43:34.781Z,76.94
2023-03-16T01:46:04.543Z,76.71
2023-03-16T01:48:59.306Z,76.71
2023-03-16T01:51:52.169Z,76.36
2023-03-16T01:54:57.156Z,76.17
2023-03-16T01:57:29.281Z,76.24
2023-03-16T02:00:10.550Z,76.30
2023-03-16T02:02:40.447Z,76.13
2023-03-16T02:05:15.776Z,76.08
2023-03-16T02:07:48.639Z,76.04
2023-03-16T02:10:17.904Z,76.08
2023-03-16T02:12:44.819Z,76.01
2023-03-16T02:15:14.168Z,75.81
2023-03-16T02:17:43.088Z,75.82
2023-03-16T02:20:16.978Z,75.92
2023-03-16T02:22:46.721Z,75.88
2023-03-16T02:25:16.285Z,75.80
2023-03-16T02:28:06.209Z,75.86
2023-03-16T02:30:33.153Z,75.75
2023-03-16T02:33:00.242Z,75.74
2023-03-16T02:35:26.759Z,75.93
2023-03-16T02:37:53.330Z,75.99
2023-03-16T02:40:25.315Z,75.95
2023-03-16T02:43:05.308Z,75.91
2023-03-16T02:45:39.520Z,75.93
2023-03-16T02:48:14.743Z,76.06
2023-03-16T02:50:49.710Z,76.10
2023-03-16T02:53:16.506Z,76.01
2023-03-16T02:55:43.113Z,76.04
2023-03-16T02:58:09.913Z,75.91
2023-03-16T03:00:38.257Z,76.01
2023-03-16T03:03:08.576Z,75.87
2023-03-16T03:05:36.263Z,75.94
2023-03-16T03:08:03.090Z,75.70
2023-03-16T03:10:29.922Z,75.97
2023-03-16T03:12:57.636Z,75.59
2023-03-16T03:15:24.382Z,75.68
2023-03-16T03:17:51.205Z,75.72
2023-03-16T03:20:18.422Z,75.54
2023-03-16T03:22:47.561Z,75.54
2023-03-16T03:25:16.357Z,75.53
2023-03-16T03:27:44.436Z,75.56
2023-03-16T03:30:13.392Z,75.46
2023-03-16T03:32:40.488Z,75.29
2023-03-16T03:35:08.231Z,75.37
2023-03-16T03:37:35.120Z,75.22
2023-03-16T03:40:10.486Z,75.50
2023-03-16T03:42:37.493Z,75.36
2023-03-16T03:45:04.796Z,75.22
2023-03-16T03:47:31.263Z,75.03
2023-03-16T03:49:57.706Z,75.27
2023-03-16T03:52:24.194Z,75.24
2023-03-16T03:54:51.482Z,75.41
2023-03-16T03:57:19.108Z,75.17
2023-03-16T03:59:46.328Z,75.49
2023-03-16T04:02:13.814Z,75.25
2023-03-16T04:04:41.872Z,74.92
2023-03-16T04:07:08.722Z,75.25
2023-03-16T04:09:35.803Z,74.95
2023-03-16T04:12:04.054Z,75.06
2023-03-16T04:14:31.741Z,75.17
2023-03-16T04:16:58.416Z,74.99
2023-03-16T04:19:25.726Z,74.95
2023-03-16T04:21:52.669Z,74.95
2023-03-16T04:24:19.318Z,75.13
2023-03-16T04:26:46.279Z,75.12
2023-03-16T04:29:14.440Z,75.37
2023-03-16T04:31:42.541Z,75.20
2023-03-16T04:34:09.245Z,75.28
2023-03-16T04:36:35.859Z,75.44
2023-03-16T04:39:02.948Z,75.28
2023-03-16T04:41:29.456Z,75.51
2023-03-16T04:43:57.699Z,75.37
2023-03-16T04:46:26.731Z,75.56
2023-03-16T04:48:54.291Z,75.69
2023-03-16T04:51:21.623Z,75.65
2023-03-16T04:53:48.216Z,75.61
2023-03-16T04:56:19.869Z,75.66
2023-03-16T04:58:50.890Z,75.88
2023-03-16T05:01:18.622Z,75.91
2023-03-16T05:03:45.676Z,75.77
2023-03-16T05:06:12.949Z,75.94
2023-03-16T05:08:39.442Z,76.00
2023-03-16T05:11:06.142Z,75.81
2023-03-16T05:13:33.337Z,75.71
2023-03-16T05:16:00.643Z,75.91
2023-03-16T05:18:27.449Z,75.77
2023-03-16T05:20:56.118Z,75.86
2023-03-16T05:23:23.957Z,76.02
2023-03-16T05:25:50.734Z,76.08
2023-03-16T05:28:17.709Z,76.17
2023-03-16T05:30:45.434Z,76.30
2023-03-16T05:33:12.545Z,76.17
2023-03-16T05:35:39.407Z,76.15
2023-03-16T05:38:06.144Z,76.15
2023-03-16T05:40:33.237Z,76.15
2023-03-16T05:43:00.680Z,76.16
2023-03-16T05:45:27.984Z,76.06
2023-03-16T05:47:54.612Z,76.04
2023-03-16T05:50:21.609Z,76.22
2023-03-16T05:52:48.726Z,76.21
2023-03-16T05:55:17.467Z,76.02
2023-03-16T05:57:44.828Z,76.18
2023-03-16T06:00:16.921Z,76.05
2023-03-16T06:02:48.549Z,76.02
2023-03-16T06:05:16.477Z,76.11
2023-03-16T06:07:42.976Z,75.76
2023-03-16T06:10:10.610Z,76.24
2023-03-16T06:12:37.734Z,75.92
2023-03-16T06:15:08.515Z,76.06
2023-03-16T06:17:36.414Z,76.17
2023-03-16T06:20:05.413Z,76.18
2023-03-16T06:22:32.023Z,75.72
2023-03-16T06:24:58.567Z,75.68
2023-03-16T06:27:26.686Z,75.77
2023-03-16T06:29:53.433Z,75.84
2023-03-16T06:32:20.307Z,75.50
2023-03-16T06:34:46.800Z,75.38
2023-03-16T06:37:13.426Z,75.24
2023-03-16T06:39:40.205Z,75.12
2023-03-16T06:42:06.797Z,74.90
2023-03-16T06:44:33.384Z,75.11
2023-03-16T06:47:00.151Z,74.70
2023-03-16T06:49:27.397Z,74.59
2023-03-16T06:51:53.926Z,74.80
2023-03-16T06:54:20.428Z,74.83
2023-03-16T06:56:47.105Z,74.56
2023-03-16T06:59:13.847Z,74.47
2023-03-16T07:01:40.401Z,74.52
2023-03-16T07:04:07.380Z,74.40
2023-03-16T07:06:35.649Z,74.51
2023-03-16T07:09:02.213Z,74.37
2023-03-16T07:11:28.818Z,74.24
2023-03-16T07:13:55.346Z,74.30
2023-03-16T07:16:22.141Z,74.04
2023-03-16T07:18:48.694Z,74.05
2023-03-16T07:21:15.269Z,73.90
2023-03-16T07:23:41.765Z,73.90
2023-03-16T07:26:08.418Z,73.71
2023-03-16T07:28:35.385Z,73.68
2023-03-16T07:33:40.257Z,73.71
2023-03-16T07:36:09.279Z,73.62
2023-03-16T07:38:36.272Z,73.45
2023-03-16T07:41:03.112Z,73.35
2023-03-16T07:43:29.864Z,73.32
2023-03-16T07:45:56.772Z,73.18
2023-03-16T07:48:23.463Z,72.93
2023-03-16T07:50:50.775Z,73.03
2023-03-16T07:53:17.927Z,72.99
2023-03-16T07:55:45.069Z,73.07
2023-03-16T07:58:11.952Z,72.65
2023-03-16T08:00:39.533Z,72.39
2023-03-16T08:03:06.932Z,72.55
2023-03-16T08:05:33.668Z,72.43
2023-03-16T08:08:01.984Z,72.13
2023-03-16T08:10:30.002Z,72.38
2023-03-16T08:12:57.452Z,72.47
2023-03-16T08:15:24.993Z,72.45
2023-03-16T08:17:52.574Z,72.41
2023-03-16T08:20:19.328Z,71.98
2023-03-16T08:22:46.774Z,71.87
2023-03-16T08:25:15.781Z,71.71
2023-03-16T08:27:43.256Z,71.60
2023-03-16T08:30:11.725Z,71.45
2023-03-16T08:32:41.884Z,71.30
2023-03-16T08:35:10.561Z,71.51
2023-03-16T08:37:37.470Z,71.41
2023-03-16T08:40:06.820Z,71.30
2023-03-16T08:42:33.310Z,71.05
2023-03-16T08:45:01.342Z,70.71
2023-03-16T08:47:27.858Z,70.47
2023-03-16T08:49:54.613Z,70.41
2023-03-16T08:52:22.705Z,70.55
2023-03-16T08:55:02.510Z,70.41
2023-03-16T08:57:30.203Z,70.46
2023-03-16T08:59:57.394Z,70.68
2023-03-16T09:02:25.055Z,70.69
2023-03-16T09:04:52.853Z,70.45
2023-03-16T09:07:20.572Z,70.49
2023-03-16T09:09:47.229Z,70.51
2023-03-16T09:12:13.800Z,70.81
2023-03-16T09:14:40.526Z,70.68
2023-03-16T09:17:12.002Z,70.55
2023-03-16T09:19:57.702Z,70.58
2023-03-16T09:22:26.144Z,70.40
2023-03-16T09:24:52.863Z,70.13
2023-03-16T09:27:20.727Z,69.88
2023-03-16T09:29:47.329Z,69.25
2023-03-16T09:32:14.328Z,68.47
2023-03-16T09:34:41.522Z,67.43
2023-03-16T09:37:08.063Z,66.83
2023-03-16T09:39:34.699Z,65.98
2023-03-16T09:42:19.609Z,65.93
2023-03-16T09:45:13.597Z,66.52
2023-03-16T09:47:45.745Z,65.39
2023-03-16T09:50:30.304Z,65.49
2023-03-16T09:53:09.547Z,66.10
2023-03-16T09:55:38.929Z,66.16
2023-03-16T09:58:13.305Z,66.57
2023-03-16T10:01:07.737Z,66.61
2023-03-16T10:03:49.792Z,66.26
2023-03-16T10:06:16.946Z,66.25
2023-03-16T10:08:54.231Z,66.55
2023-03-16T10:11:41.930Z,66.40
2023-03-16T10:14:20.194Z,65.65
2023-03-16T10:16:48.954Z,66.13
2023-03-16T10:19:43.609Z,65.86
2023-03-16T10:22:18.888Z,65.91
2023-03-16T10:25:36.978Z,65.87
2023-03-16T10:28:03.685Z,65.83
2023-03-16T10:30:37.534Z,66.03
2023-03-16T10:33:30.303Z,65.34
2023-03-16T10:36:25.967Z,65.00
2023-03-16T10:39:07.884Z,64.89
2023-03-16T10:41:46.889Z,64.72
2023-03-16T10:44:22.664Z,64.39
2023-03-16T10:46:54.080Z,64.39
2023-03-16T10:49:29.094Z,64.11
2023-03-16T10:52:00.740Z,63.26
2023-03-16T10:54:30.766Z,62.55
2023-03-16T10:57:01.925Z,62.51
2023-03-16T10:59:38.308Z,61.80
2023-03-16T11:02:31.870Z,61.27
2023-03-16T11:04:58.996Z,61.00
2023-03-16T11:07:25.680Z,60.71
2023-03-16T11:09:59.802Z,61.35
2023-03-16T11:12:30.756Z,61.16
2023-03-16T11:15:11.508Z,61.60
2023-03-16T11:17:51.532Z,61.16
2023-03-16T11:20:26.462Z,61.01
2023-03-16T11:22:52.957Z,61.16
2023-03-16T11:25:29.145Z,60.10
2023-03-16T11:28:17.828Z,58.44
2023-03-16T11:30:51.904Z,55.60
2023-03-16T11:33:18.433Z,55.99
2023-03-16T11:35:59.365Z,55.83
2023-03-16T11:38:44.180Z,55.06
2023-03-16T11:41:20.391Z,56.12
2023-03-16T11:44:23.585Z,55.65
2023-03-16T11:47:36.752Z,55.07
2023-03-16T11:50:21.906Z,55.99
2023-03-16T11:53:12.295Z,54.96
2023-03-16T11:56:00.452Z,55.32
2023-03-16T11:58:45.468Z,55.57
2023-03-16T12:01:24.966Z,56.00
2023-03-16T12:04:29.731Z,55.12
2023-03-16T12:07:18.363Z,54.24
2023-03-16T12:09:54.121Z,54.04
2023-03-16T12:12:49.979Z,53.42
2023-03-16T12:15:39.524Z,52.44
2023-03-16T12:18:26.302Z,51.52
2023-03-16T12:20:59.585Z,52.61
2023-03-16T12:23:31.945Z,53.88
2023-03-16T12:26:04.129Z,53.91
2023-03-16T12:28:34.972Z,53.98
2023-03-16T12:31:14.274Z,55.52
2023-03-16T12:33:50.013Z,55.37
2023-03-16T12:36:19.108Z,55.57
2023-03-16T12:39:09.528Z,55.38
2023-03-16T12:41:45.404Z,55.55
2023-03-16T12:44:32.890Z,55.90
2023-03-16T12:47:24.025Z,56.03
2023-03-16T12:49:52.101Z,55.79
2023-03-16T12:52:18.929Z,55.80
2023-03-16T12:55:17.731Z,55.63
2023-03-16T12:57:46.892Z,55.87
2023-03-16T13:00:15.119Z,55.89
2023-03-16T13:02:56.090Z,56.06
2023-03-16T13:05:34.776Z,55.33
2023-03-16T13:08:21.461Z,55.80
2023-03-16T13:11:02.789Z,55.01
2023-03-16T13:13:29.530Z,54.57
2023-03-16T13:16:07.009Z,54.52
2023-03-16T13:18:38.087Z,54.44
2023-03-16T13:21:33.963Z,53.87
2023-03-16T13:24:12.858Z,53.91
2023-03-16T13:26:40.972Z,54.17
2023-03-16T13:29:19.596Z,53.71
2023-03-16T13:31:47.215Z,53.13
2023-03-16T13:34:20.886Z,52.80
2023-03-16T13:36:50.165Z,52.43
2023-03-16T13:39:31.185Z,51.97
2023-03-16T13:42:25.439Z,52.08
2023-03-16T13:44:54.330Z,51.35
2023-03-16T13:47:21.511Z,50.29
2023-03-16T13:49:56.705Z,50.24
2023-03-16T13:52:28.030Z,50.12
2023-03-16T13:54:56.474Z,49.86
2023-03-16T13:57:27.054Z,50.41
2023-03-16T14:00:02.680Z,50.43
2023-03-16T14:02:29.553Z,50.00
2023-03-16T14:04:56.134Z,49.56
2023-03-16T14:07:24.681Z,50.01
2023-03-16T14:09:52.480Z,49.34
2023-03-16T14:12:19.973Z,49.42
2023-03-16T14:14:50.267Z,49.74
2023-03-16T14:17:20.465Z,50.12
2023-03-16T14:19:56.662Z,50.69
2023-03-16T14:22:28.694Z,50.61
2023-03-16T14:24:59.210Z,50.75
2023-03-16T14:27:28.590Z,50.63
2023-03-16T14:30:01.637Z,50.38
2023-03-16T14:32:31.244Z,50.87
2023-03-16T14:35:14.733Z,51.06
2023-03-16T14:37:42.065Z,50.86
2023-03-16T14:40:32.617Z,50.81
2023-03-16T14:43:03.692Z,50.46
2023-03-16T14:45:34.085Z,51.01
2023-03-16T14:48:08.492Z,50.37
2023-03-16T14:50:35.090Z,50.02
2023-03-16T14:53:04.248Z,49.73
2023-03-16T14:55:31.493Z,49.67
2023-03-16T14:57:58.293Z,49.21
2023-03-16T15:00:26.276Z,48.91
2023-03-16T15:03:06.615Z,50.15
2023-03-16T15:05:42.194Z,50.49
2023-03-16T15:08:20.091Z,50.72
2023-03-16T15:10:46.918Z,51.23
2023-03-16T15:13:34.975Z,50.65
2023-03-16T15:16:04.426Z,50.78
2023-03-16T15:18:32.793Z,50.05
2023-03-16T15:21:00.576Z,50.31
2023-03-16T15:23:27.032Z,50.79
2023-03-16T15:25:59.458Z,50.87
2023-03-16T15:28:27.703Z,49.52
2023-03-16T15:30:57.278Z,50.01
2023-03-16T15:33:24.767Z,49.43
2023-03-16T15:35:53.551Z,50.00
2023-03-16T15:38:36.307Z,50.27
2023-03-16T15:41:04.020Z,50.66
2023-03-16T15:43:30.996Z,50.95
2023-03-16T15:45:59.975Z,52.02
2023-03-16T15:48:27.161Z,52.08
2023-03-16T15:51:04.230Z,51.60
2023-03-16T15:53:38.901Z,52.14
2023-03-16T15:56:17.505Z,52.14
2023-03-16T15:58:46.824Z,52.60
2023-03-16T16:01:27.952Z,52.91
2023-03-16T16:03:55.469Z,53.14
2023-03-16T16:06:22.368Z,53.57
2023-03-16T16:08:48.911Z,53.97
2023-03-16T16:11:17.933Z,54.01
2023-03-16T16:13:45.329Z,54.63
2023-03-16T16:16:18.142Z,54.90
2023-03-16T16:18:45.412Z,55.38
2023-03-16T16:21:24.872Z,55.88
2023-03-16T16:23:52.806Z,55.71
2023-03-16T16:26:19.265Z,55.99
2023-03-16T16:28:47.636Z,56.08
2023-03-16T16:31:14.561Z,56.43
2023-03-16T16:33:41.213Z,56.91
2023-03-16T16:36:15.086Z,57.14
2023-03-16T16:38:41.578Z,57.48
2023-03-16T16:41:09.400Z,57.80
2023-03-16T16:43:46.924Z,58.04
2023-03-16T16:46:20.354Z,58.28
2023-03-16T16:48:50.081Z,58.59
2023-03-16T16:51:19.924Z,58.57
2023-03-16T16:53:47.151Z,58.88
2023-03-16T16:56:16.208Z,58.55
2023-03-16T16:58:43.261Z,58.44
2023-03-16T17:01:26.453Z,58.64
2023-03-16T17:03:53.524Z,58.88
2023-03-16T17:06:20.512Z,59.15
2023-03-16T17:08:47.821Z,59.43
2023-03-16T17:11:22.982Z,59.45
2023-03-16T17:13:52.734Z,59.84
2023-03-16T17:16:22.066Z,59.82
2023-03-16T17:18:49.686Z,60.08
2023-03-16T17:21:19.778Z,60.16
2023-03-16T17:23:47.884Z,60.19
2023-03-16T17:26:19.212Z,60.34
2023-03-16T17:28:52.173Z,60.44
2023-03-16T17:31:23.622Z,60.83
2023-03-16T17:33:53.919Z,60.74
2023-03-16T17:36:21.616Z,60.89
2023-03-16T17:38:48.661Z,60.77
2023-03-16T17:41:25.495Z,61.09
2023-03-16T17:43:57.133Z,60.99
2023-03-16T17:46:28.366Z,61.02
2023-03-16T17:48:56.186Z,60.92
2023-03-16T17:51:25.938Z,61.05
2023-03-16T17:53:54.106Z,61.38
2023-03-16T17:56:24.643Z,61.29
2023-03-16T17:58:56.917Z,61.20
2023-03-16T18:01:28.278Z,61.31
2023-03-16T18:03:56.100Z,61.22
2023-03-16T18:06:25.692Z,61.05
2023-03-16T18:08:53.012Z,61.08
2023-03-16T18:11:21.815Z,61.24
2023-03-16T18:13:51.084Z,61.49
2023-03-16T18:16:25.065Z,61.44
2023-03-16T18:18:55.227Z,61.31
2023-03-16T18:21:24.725Z,61.59
2023-03-16T18:23:52.990Z,61.74
2023-03-16T18:26:20.418Z,61.82
2023-03-16T18:28:48.456Z,62.01
2023-03-16T18:31:21.477Z,62.06
2023-03-16T18:33:54.064Z,62.15
2023-03-16T18:36:25.953Z,61.99
2023-03-16T18:38:53.211Z,62.24
2023-03-16T18:41:26.125Z,62.55
2023-03-16T18:43:55.074Z,62.42
2023-03-16T18:46:25.533Z,62.33
2023-03-16T18:48:57.395Z,62.37
2023-03-16T18:51:25.394Z,62.35
2023-03-16T18:53:52.351Z,62.67
2023-03-16T18:58:41.082Z,62.42
2023-03-16T19:01:12.100Z,62.35
2023-03-16T19:03:44.483Z,62.32
2023-03-16T19:06:19.265Z,61.96
2023-03-16T19:08:45.802Z,62.24
2023-03-16T19:11:13.280Z,62.72
2023-03-16T19:13:39.826Z,62.60
2023-03-16T19:16:09.087Z,62.30
2023-03-16T19:18:44.687Z,62.89
2023-03-16T19:21:24.377Z,62.73
2023-03-16T19:24:03.014Z,62.51
2023-03-16T19:26:36.015Z,62.83
2023-03-16T19:29:04.133Z,62.74
2023-03-16T19:31:32.098Z,63.16
2023-03-16T19:33:58.738Z,63.08
2023-03-16T19:36:35.901Z,63.49
2023-03-16T19:39:04.024Z,63.46
2023-03-16T19:41:37.567Z,63.38
2023-03-16T19:44:15.838Z,63.60
2023-03-16T19:46:42.649Z,63.65
2023-03-16T19:49:22.767Z,63.69
2023-03-16T19:51:51.689Z,63.95
2023-03-16T19:54:33.630Z,64.12
2023-03-16T19:57:14.023Z,64.03
2023-03-16T19:59:41.758Z,64.12
2023-03-16T20:02:28.262Z,64.27
2023-03-16T20:04:55.681Z,64.45
2023-03-16T20:07:22.543Z,64.77
2023-03-16T20:09:49.177Z,64.66
2023-03-16T20:12:27.346Z,64.92
2023-03-16T20:14:56.154Z,64.77
2023-03-16T20:17:25.222Z,64.62
2023-03-16T20:19:52.465Z,64.88
2023-03-16T20:22:22.201Z,64.73
2023-03-16T20:24:49.580Z,65.04
2023-03-16T20:27:18.645Z,64.90
2023-03-16T20:29:46.124Z,64.83
2023-03-16T20:32:30.802Z,64.86
2023-03-16T20:34:58.195Z,65.10
2023-03-16T20:37:28.061Z,65.10
2023-03-16T20:39:56.687Z,65.28
2023-03-16T20:42:32.886Z,65.45
2023-03-16T20:44:59.964Z,65.46
2023-03-16T20:47:27.463Z,65.47
2023-03-16T20:49:57.534Z,65.14
2023-03-16T20:52:27.706Z,65.32
2023-03-16T20:54:55.452Z,65.29
2023-03-16T20:57:24.387Z,65.32
2023-03-16T20:59:53.885Z,65.45
2023-03-16T21:02:35.226Z,65.76
2023-03-16T21:05:04.194Z,65.44
2023-03-16T21:07:32.591Z,65.26
2023-03-16T21:09:59.132Z,65.23
2023-03-16T21:12:44.144Z,65.27
2023-03-16T21:15:29.328Z,64.93
2023-03-16T21:18:02.109Z,65.26
2023-03-16T21:20:32.234Z,64.64
2023-03-16T21:22:59.765Z,64.70
2023-03-16T21:25:30.943Z,65.17
2023-03-16T21:28:02.325Z,65.12
2023-03-16T21:30:35.774Z,64.97
2023-03-16T21:33:02.437Z,64.88
2023-03-16T21:35:34.371Z,64.89
2023-03-16T21:38:07.435Z,65.03
2023-03-16T21:40:36.786Z,64.79
2023-03-16T21:43:03.271Z,64.47
2023-03-16T21:45:30.206Z,64.72
2023-03-16T21:47:58.478Z,64.47
2023-03-16T21:50:31.296Z,64.55
2023-03-16T21:52:58.000Z,64.67
2023-03-16T21:55:27.086Z,64.54
2023-03-16T21:57:54.141Z,64.37
2023-03-16T22:00:20.863Z,64.50
2023-03-16T22:02:49.617Z,64.30
2023-03-16T22:05:30.554Z,64.31
2023-03-16T22:07:58.140Z,64.35
2023-03-16T22:10:28.536Z,64.44
2023-03-16T22:12:56.382Z,64.58
2023-03-16T22:15:27.940Z,64.54
2023-03-16T22:17:56.504Z,64.52
2023-03-16T22:20:27.127Z,64.32
2023-03-16T22:22:55.440Z,64.03
2023-03-16T22:25:24.511Z,63.96
2023-03-16T22:27:52.183Z,64.21
2023-03-16T22:30:22.766Z,64.23
2023-03-16T22:32:53.119Z,64.33
2023-03-16T22:35:38.954Z,64.19
2023-03-16T22:38:07.235Z,64.57
2023-03-16T22:40:37.250Z,64.44
2023-03-16T22:43:07.535Z,64.23
2023-03-16T22:45:34.636Z,64.31
2023-03-16T22:48:07.747Z,64.36
2023-03-16T22:50:35.567Z,64.74
2023-03-16T22:53:05.843Z,64.67
2023-03-16T22:55:39.106Z,64.98
2023-03-16T22:58:17.864Z,64.54
2023-03-16T23:00:45.414Z,64.79
2023-03-16T23:03:17.205Z,64.58
2023-03-16T23:05:43.817Z,64.78
2023-03-16T23:08:17.580Z,64.92
2023-03-16T23:10:45.239Z,65.03
2023-03-16T23:13:24.635Z,64.68
2023-03-16T23:15:53.534Z,64.85
2023-03-16T23:18:25.846Z,64.73
2023-03-16T23:20:53.019Z,65.09
2023-03-16T23:23:19.552Z,65.07
2023-03-16T23:25:47.722Z,64.86
2023-03-16T23:28:19.745Z,64.99
2023-03-16T23:30:46.524Z,65.15
2023-03-16T23:33:13.740Z,65.03
2023-03-16T23:35:46.324Z,65.00
2023-03-16T23:38:13.774Z,65.09
2023-03-16T23:40:40.780Z,65.10
2023-03-16T23:43:08.468Z,65.01
2023-03-16T23:45:42.168Z,65.27
2023-03-16T23:48:15.035Z,65.03
2023-03-16T23:50:42.190Z,65.11
2023-03-16T23:53:14.200Z,65.53
2023-03-16T23:55:42.293Z,65.37
2023-03-16T23:58:09.627Z,65.50
